Time;durP1;ratioP1;P1;durP2;ratioP2;P2;SDS_P1;SDS_P2;PMS_P1;PMS_P2;Temp;Humidity;BMP_temperature;BMP_pressure;BME280_temperature;BME280_humidity;BME280_pressure;Samples;Min_cycle;Max_cycle;Signal;HPM_P1;HPM_P2
2024/01/03 00:02:20;;;;;;;3.17;0.90;;;;;;;-145.69;55.94;52274.06;5096967;28;20275;-79
2024/01/03 00:04:46;;;;;;;2.70;0.90;;;;;;;-145.69;56.02;52264.16;5096670;28;20653;-80
2024/01/03 00:07:13;;;;;;;5.50;0.80;;;;;;;-145.69;57.00;52198.81;5096608;28;20248;-79
2024/01/03 00:09:41;;;;;;;6.03;1.10;;;;;;;-145.69;58.61;52248.34;5096478;28;20202;-80
2024/01/03 00:12:08;;;;;;;1.93;1.20;;;;;;;-145.69;59.51;52222.59;5096733;28;20439;-79
2024/01/03 00:14:35;;;;;;;2.40;0.90;;;;;;;-145.69;60.64;52256.25;5096357;28;20202;-79
2024/01/03 00:17:04;;;;;;;1.70;1.00;;;;;;;-145.69;61.02;52250.31;5096241;28;20688;-78
2024/01/03 00:19:34;;;;;;;1.23;0.90;;;;;;;-145.69;61.92;52260.22;5096313;28;20232;-80
2024/01/03 00:22:01;;;;;;;3.90;1.00;;;;;;;-145.69;62.05;52260.22;5095843;28;20201;-78
2024/01/03 00:24:29;;;;;;;1.50;1.20;;;;;;;-145.69;61.64;52262.19;5096175;28;20225;-78
2024/01/03 00:26:57;;;;;;;3.13;1.53;;;;;;;-145.69;62.82;52242.38;5096117;28;20202;-78
2024/01/03 00:29:52;;;;;;;4.10;1.30;;;;;;;-145.69;61.87;52228.53;5096094;28;20202;-79
2024/01/03 00:32:19;;;;;;;1.60;1.20;;;;;;;-145.69;62.57;52222.59;5095999;28;20230;-79
2024/01/03 00:34:46;;;;;;;0.80;0.70;;;;;;;-145.69;62.64;52274.06;5096189;28;20587;-81
2024/01/03 00:37:30;;;;;;;3.33;0.97;;;;;;;-145.69;62.26;52252.28;5096007;28;20229;-78
2024/01/03 00:39:58;;;;;;;1.87;0.80;;;;;;;-145.69;62.95;52258.22;5096061;28;20541;-78
2024/01/03 00:42:26;;;;;;;1.93;0.70;;;;;;;-145.69;63.45;52222.59;5095996;28;20251;-78
2024/01/03 00:44:53;;;;;;;1.13;0.80;;;;;;;-145.69;63.76;52282.00;5095862;28;20205;-79
2024/01/03 00:47:20;;;;;;;1.30;0.80;;;;;;;-145.69;63.34;52274.06;5095689;28;20214;-79
2024/01/03 00:49:48;;;;;;;1.17;0.90;;;;;;;-145.69;63.89;52270.13;5095446;28;20195;-79
2024/01/03 00:52:16;;;;;;;1.83;0.57;;;;;;;-145.69;64.76;52254.28;5095574;28;20222;-79
2024/01/03 00:54:45;;;;;;;0.80;0.80;;;;;;;-145.69;64.45;52250.31;5095666;28;20202;-79
2024/01/03 00:57:11;;;;;;;2.50;1.00;;;;;;;-145.69;64.66;52258.22;5095460;28;20218;-79
2024/01/03 00:59:39;;;;;;;0.80;0.80;;;;;;;-145.69;65.63;52240.41;5094608;28;20226;-78
2024/01/03 01:02:06;;;;;;;2.40;0.90;;;;;;;-145.69;65.83;52246.34;5095330;28;20209;-78
2024/01/03 01:04:33;;;;;;;0.83;0.60;;;;;;;-145.69;66.13;52252.28;5092670;28;20198;-78
2024/01/03 01:07:00;;;;;;;0.80;0.70;;;;;;;-145.69;66.23;52248.34;5095076;28;20221;-78
2024/01/03 01:09:27;;;;;;;0.70;0.70;;;;;;;-145.69;65.83;52238.44;5095490;28;20198;-79
2024/01/03 01:11:53;;;;;;;0.90;0.80;;;;;;;-145.69;66.19;52262.19;5095037;28;20579;-78
2024/01/03 01:14:19;;;;;;;1.10;0.73;;;;;;;-145.69;65.74;52268.13;5095254;28;20281;-78
2024/01/03 01:16:47;;;;;;;3.17;0.77;;;;;;;-145.69;65.61;52266.16;5094876;28;20602;-79
2024/01/03 01:19:14;;;;;;;0.70;0.60;;;;;;;-145.69;65.36;52250.31;5094558;28;20194;-78
2024/01/03 01:21:41;;;;;;;0.80;0.60;;;;;;;-145.69;66.48;52282.00;5093998;28;20459;-77
2024/01/03 01:24:08;;;;;;;2.80;0.80;;;;;;;-145.69;65.16;52287.94;5095009;28;20699;-78
2024/01/03 01:26:34;;;;;;;2.43;0.80;;;;;;;-145.69;62.44;52258.22;5095303;28;20202;-80
2024/01/03 01:29:00;;;;;;;2.10;0.80;;;;;;;-145.69;62.44;52254.28;5094815;28;20603;-79
2024/01/03 01:31:27;;;;;;;1.00;0.90;;;;;;;-145.69;64.05;52254.28;5095200;28;20201;-79
2024/01/03 01:33:55;;;;;;;1.43;0.87;;;;;;;-145.69;63.97;52266.16;5094864;28;20595;-79
2024/01/03 01:36:21;;;;;;;1.20;0.90;;;;;;;-145.69;63.21;52305.75;5094924;28;20201;-80
2024/01/03 01:38:48;;;;;;;1.60;0.60;;;;;;;-145.69;63.04;52238.44;5094748;28;20279;-79
2024/01/03 01:41:14;;;;;;;2.90;0.90;;;;;;;-145.69;63.12;52278.03;5094696;28;20236;-79
2024/01/03 01:43:40;;;;;;;0.70;0.60;;;;;;;-145.69;62.78;52285.97;5094743;28;20202;-80
2024/01/03 01:46:08;;;;;;;0.97;0.70;;;;;;;-145.69;62.77;52297.84;5094930;28;20202;-80
2024/01/03 01:48:34;;;;;;;0.97;0.80;;;;;;;-145.69;62.62;52268.13;5085462;28;20199;-79
2024/01/03 01:51:03;;;;;;;2.67;1.47;;;;;;;-145.69;62.47;52230.50;5089711;28;20714;-80
2024/01/03 01:53:30;;;;;;;0.60;0.60;;;;;;;-145.69;62.88;52285.97;5094406;28;20198;-79
2024/01/03 01:55:56;;;;;;;0.97;0.80;;;;;;;-145.69;62.26;52287.94;5094299;28;20235;-81
2024/01/03 01:58:23;;;;;;;1.70;0.70;;;;;;;-145.69;62.56;52285.97;5094022;28;20233;-79
2024/01/03 02:00:50;;;;;;;0.80;0.70;;;;;;;-145.69;63.09;52274.06;5094532;28;20281;-79
2024/01/03 02:03:17;;;;;;;1.07;0.93;;;;;;;-145.69;63.04;52289.91;5094444;28;20198;-79
2024/01/03 02:05:45;;;;;;;0.60;0.60;;;;;;;-145.69;63.11;52297.84;5093766;28;20193;-78
2024/01/03 02:08:13;;;;;;;0.70;0.70;;;;;;;-145.69;63.06;52282.00;5094292;28;20611;-78
2024/01/03 02:10:39;;;;;;;0.70;0.70;;;;;;;-145.69;62.58;52285.97;5094081;28;20660;-78
2024/01/03 02:13:06;;;;;;;2.50;0.80;;;;;;;-145.69;62.51;52317.66;5094134;28;20244;-79
2024/01/03 02:15:32;;;;;;;1.20;0.83;;;;;;;-145.69;61.49;52264.16;5094215;28;20619;-78
2024/01/03 02:18:00;;;;;;;3.80;0.90;;;;;;;-145.69;61.22;52270.13;5094085;28;20233;-78
2024/01/03 02:20:32;;;;;;;1.03;0.80;;;;;;;-145.69;60.84;52242.38;5093860;28;20202;-78
2024/01/03 02:23:00;;;;;;;0.60;0.60;;;;;;;-145.69;61.45;52289.91;5093962;28;20209;-80
2024/01/03 02:25:26;;;;;;;1.27;0.60;;;;;;;-145.69;61.45;52266.16;5094083;28;20194;-78
2024/01/03 02:27:52;;;;;;;2.03;0.90;;;;;;;-145.69;61.00;52289.91;5094085;28;20202;-78
2024/01/03 02:30:19;;;;;;;1.60;0.70;;;;;;;-145.69;60.14;52260.22;5094112;28;20630;-78
2024/01/03 02:32:45;;;;;;;1.60;0.90;;;;;;;-145.69;59.75;52262.19;5093954;28;20224;-78
2024/01/03 02:35:12;;;;;;;2.00;1.73;;;;;;;-145.69;60.46;52270.13;5093449;28;20647;-77
2024/01/03 02:37:38;;;;;;;1.70;0.70;;;;;;;-145.69;60.14;52289.91;5094078;28;20707;-79
2024/01/03 02:40:08;;;;;;;0.70;0.70;;;;;;;-145.69;61.09;52258.22;5093865;28;20231;-80
2024/01/03 02:42:34;;;;;;;0.80;0.63;;;;;;;-145.69;60.55;52254.28;5093832;28;20679;-79
2024/01/03 02:45:00;;;;;;;0.80;0.80;;;;;;;-145.69;61.01;52266.16;5093695;28;20210;-79
2024/01/03 02:47:27;;;;;;;1.03;0.80;;;;;;;-145.69;60.79;52274.06;5093684;28;20198;-78
2024/01/03 02:49:57;;;;;;;1.23;0.80;;;;;;;-145.69;61.36;52293.88;5093319;28;20193;-79
2024/01/03 02:52:24;;;;;;;2.30;0.93;;;;;;;-145.69;61.19;52321.59;5093817;28;20194;-80
2024/01/03 02:54:51;;;;;;;3.07;0.80;;;;;;;-145.69;60.63;52289.91;5093506;28;20202;-79
2024/01/03 02:57:19;;;;;;;0.67;0.60;;;;;;;-145.69;60.44;52283.97;5093395;28;20229;-81
2024/01/03 02:59:45;;;;;;;0.80;0.80;;;;;;;-145.69;60.16;52250.31;5093461;28;20198;-80
2024/01/03 03:02:11;;;;;;;0.70;0.70;;;;;;;-145.69;59.51;52274.06;5093335;28;20206;-80
2024/01/03 03:04:38;;;;;;;1.83;0.80;;;;;;;-145.69;59.61;52327.53;5093277;28;20198;-79
2024/01/03 03:07:04;;;;;;;1.33;0.80;;;;;;;-145.69;59.85;52305.75;5092292;28;20198;-80
2024/01/03 03:09:31;;;;;;;1.20;0.80;;;;;;;-145.69;59.57;52282.00;5093341;28;20198;-78
2024/01/03 03:11:58;;;;;;;2.63;0.83;;;;;;;-145.69;59.34;52315.66;5092999;28;20656;-79
2024/01/03 03:14:25;;;;;;;0.63;0.63;;;;;;;-145.69;59.08;52291.91;5093164;28;20202;-80
2024/01/03 03:16:52;;;;;;;1.10;0.80;;;;;;;-145.69;59.19;52301.81;5092964;28;20198;-80
2024/01/03 03:19:18;;;;;;;0.70;0.63;;;;;;;-145.69;59.17;52297.84;5092688;28;20237;-80
2024/01/03 03:21:45;;;;;;;0.93;0.70;;;;;;;-145.69;58.38;52305.75;5093312;28;20624;-79
2024/01/03 03:24:11;;;;;;;2.57;0.80;;;;;;;-145.69;58.41;52289.91;5092612;28;20247;-80
2024/01/03 03:26:38;;;;;;;1.27;0.70;;;;;;;-145.69;58.62;52266.16;5093180;28;20198;-79
2024/01/03 03:29:04;;;;;;;2.40;1.10;;;;;;;-145.69;58.36;52262.19;5093244;28;20203;-78
2024/01/03 03:31:32;;;;;;;1.13;0.77;;;;;;;-145.69;58.74;52289.91;5093014;28;20255;-78
2024/01/03 03:33:58;;;;;;;1.67;0.70;;;;;;;-145.69;57.98;52276.06;5092910;28;20205;-80
2024/01/03 03:36:25;;;;;;;4.90;0.90;;;;;;;-145.69;58.07;52317.66;5092857;28;20191;-79
2024/01/03 03:38:51;;;;;;;0.83;0.83;;;;;;;-145.69;58.04;52317.66;5093088;28;20242;-80
2024/01/03 03:41:19;;;;;;;1.90;0.70;;;;;;;-145.69;57.61;52252.28;5092866;28;20209;-79
2024/01/03 03:43:46;;;;;;;1.67;0.83;;;;;;;-145.69;57.91;52278.03;5093184;28;20252;-78
2024/01/03 03:46:13;;;;;;;2.17;0.87;;;;;;;-145.69;57.62;52289.91;5093042;28;20209;-80
2024/01/03 03:48:40;;;;;;;1.70;0.70;;;;;;;-145.69;57.73;52254.28;5092916;28;20194;-78
2024/01/03 03:51:08;;;;;;;2.10;1.03;;;;;;;-145.69;58.23;52254.28;5092778;28;20191;-79
2024/01/03 03:53:34;;;;;;;1.70;1.10;;;;;;;-145.69;58.21;52293.88;5092721;28;20350;-79
2024/01/03 03:56:00;;;;;;;2.60;1.10;;;;;;;-145.69;58.52;52305.75;5092766;28;20205;-78
2024/01/03 03:58:27;;;;;;;1.83;1.00;;;;;;;-145.69;58.87;52299.81;5088655;28;20231;-79
2024/01/03 04:00:53;;;;;;;2.30;0.87;;;;;;;-145.69;58.32;52282.00;5072316;28;20203;-78
2024/01/03 04:03:20;;;;;;;4.77;1.00;;;;;;;-145.69;58.28;52289.91;5072872;28;20203;-80
2024/01/03 04:05:47;;;;;;;5.13;1.13;;;;;;;-145.69;58.86;52280.00;5079898;28;20194;-80
2024/01/03 04:08:14;;;;;;;1.57;1.07;;;;;;;-145.69;59.08;52289.91;5092826;28;20206;-79
2024/01/03 04:10:41;;;;;;;0.97;0.80;;;;;;;-145.69;59.26;52272.09;5092806;28;20202;-80
2024/01/03 04:13:07;;;;;;;2.10;0.97;;;;;;;-145.69;59.17;52254.28;5092821;28;20293;-80
2024/01/03 04:15:34;;;;;;;1.87;0.83;;;;;;;-145.69;58.86;52266.16;5092486;28;20267;-79
2024/01/03 04:18:01;;;;;;;1.37;0.80;;;;;;;-145.69;58.96;52264.16;5092446;28;20229;-79
2024/01/03 04:20:27;;;;;;;1.13;0.90;;;;;;;-145.69;59.18;52291.91;5092530;28;20201;-79
2024/01/03 04:22:55;;;;;;;2.70;0.90;;;;;;;-145.69;58.47;52276.06;5092637;28;20194;-79
2024/01/03 04:25:22;;;;;;;0.90;0.80;;;;;;;-145.69;59.39;52301.81;5092617;28;20656;-80
2024/01/03 04:27:48;;;;;;;0.90;0.90;;;;;;;-145.69;59.84;52291.91;5092565;28;20198;-80
2024/01/03 04:30:14;;;;;;;1.20;0.70;;;;;;;-145.69;59.33;52266.16;5092367;28;20255;-80
2024/01/03 04:32:41;;;;;;;1.20;0.90;;;;;;;-145.69;59.09;52264.16;5092882;28;20202;-79
2024/01/03 04:35:08;;;;;;;1.80;0.90;;;;;;;-145.69;58.12;52297.84;5092819;28;20204;-78
2024/01/03 04:37:35;;;;;;;2.50;1.07;;;;;;;-145.69;58.16;52282.00;5096201;28;20205;-80
2024/01/03 04:40:02;;;;;;;1.90;0.90;;;;;;;-145.69;58.65;52272.09;5096027;28;20202;-79
2024/01/03 04:42:29;;;;;;;1.00;0.93;;;;;;;-145.69;58.58;52262.19;5095932;28;20234;-80
2024/01/03 04:44:55;;;;;;;0.80;0.77;;;;;;;-145.69;58.32;52278.03;5096089;28;20205;-79
2024/01/03 04:47:22;;;;;;;3.27;1.70;;;;;;;-145.69;57.97;52256.25;5095995;28;20267;-79
2024/01/03 04:49:48;;;;;;;2.83;1.20;;;;;;;-145.69;58.83;52299.81;5095622;28;20678;-79
2024/01/03 04:52:15;;;;;;;1.60;1.10;;;;;;;-145.69;59.19;52254.28;5095822;28;20199;-80
2024/01/03 04:54:41;;;;;;;4.47;0.80;;;;;;;-145.69;59.41;52240.41;5095724;28;20194;-80
2024/01/03 04:57:09;;;;;;;1.00;0.80;;;;;;;-145.69;60.58;52285.97;5095731;28;20206;-79
2024/01/03 04:59:36;;;;;;;1.03;0.87;;;;;;;-145.69;60.56;52282.00;5095067;28;20238;-79
2024/01/03 05:02:02;;;;;;;1.73;0.90;;;;;;;-145.69;61.25;52252.28;5095849;28;20198;-79
2024/01/03 05:04:29;;;;;;;0.70;0.63;;;;;;;-145.69;61.87;52270.13;5095381;28;20699;-79
2024/01/03 05:06:55;;;;;;;2.13;0.80;;;;;;;-145.69;61.98;52258.22;5095034;28;20198;-78
2024/01/03 05:09:22;;;;;;;1.33;0.90;;;;;;;-145.69;62.52;52274.06;5095269;28;20564;-79
2024/01/03 05:11:48;;;;;;;2.70;0.87;;;;;;;-145.69;63.26;52278.03;5095273;28;20326;-79
2024/01/03 05:14:16;;;;;;;0.80;0.80;;;;;;;-145.69;63.27;52278.03;5095329;28;20202;-79
2024/01/03 05:16:42;;;;;;;1.53;0.77;;;;;;;-145.69;63.44;52270.13;5095123;28;20206;-79
2024/01/03 05:19:09;;;;;;;2.03;1.27;;;;;;;-145.69;65.75;52262.19;5095245;28;20226;-79
2024/01/03 05:21:35;;;;;;;1.33;0.73;;;;;;;-145.69;67.08;52252.28;5095340;28;20205;-79
2024/01/03 05:24:01;;;;;;;0.80;0.80;;;;;;;-145.69;68.01;52303.78;5095138;28;20256;-78
2024/01/03 05:26:28;;;;;;;0.83;0.80;;;;;;;-145.69;69.13;52285.97;5095015;28;20206;-79
2024/01/03 05:28:54;;;;;;;1.00;0.87;;;;;;;-145.69;69.17;52291.91;5095238;28;20205;-78
2024/01/03 05:31:23;;;;;;;0.60;0.60;;;;;;;-145.69;70.41;52268.13;5095270;28;20800;-78
2024/01/03 05:33:49;;;;;;;0.80;0.80;;;;;;;-145.69;69.81;52282.00;5095046;28;20205;-78
2024/01/03 05:36:15;;;;;;;1.80;0.80;;;;;;;-145.69;70.13;52337.44;5094307;28;20263;-78
2024/01/03 05:38:42;;;;;;;1.37;0.90;;;;;;;-145.69;69.59;52270.13;5094677;28;20287;-79
2024/01/03 05:41:08;;;;;;;1.23;0.80;;;;;;;-145.69;70.68;52274.06;5094666;28;20193;-79
2024/01/03 05:43:35;;;;;;;1.73;0.80;;;;;;;-145.69;70.39;52280.00;5094930;28;20198;-78
2024/01/03 05:46:01;;;;;;;0.80;0.80;;;;;;;-145.69;70.43;52278.03;5094275;28;20688;-78
2024/01/03 05:48:29;;;;;;;1.03;0.87;;;;;;;-145.69;70.69;52297.84;5094857;28;20206;-79
2024/01/03 05:50:55;;;;;;;1.30;0.90;;;;;;;-145.69;70.88;52282.00;5094659;28;20668;-78
2024/01/03 05:53:21;;;;;;;1.67;1.00;;;;;;;-145.69;71.00;52301.81;5094468;28;20228;-78
2024/01/03 05:55:48;;;;;;;0.87;0.70;;;;;;;-145.69;70.11;52285.97;5094701;28;20202;-78
2024/01/03 05:58:14;;;;;;;4.53;0.80;;;;;;;-145.69;70.73;52303.78;5094397;28;20279;-77
2024/01/03 06:00:41;;;;;;;0.80;0.70;;;;;;;-145.69;69.68;52283.97;5094357;28;20293;-78
2024/01/03 06:03:07;;;;;;;1.00;0.80;;;;;;;-145.69;70.32;52293.88;5093978;28;20201;-78
2024/01/03 06:05:35;;;;;;;1.60;0.90;;;;;;;-145.69;69.95;52242.38;5094126;28;20247;-79
2024/01/03 06:08:01;;;;;;;3.40;1.00;;;;;;;-145.69;70.12;52315.66;5084383;28;20206;-79
2024/01/03 06:10:28;;;;;;;1.47;1.00;;;;;;;-145.69;69.75;52289.91;5092602;28;20271;-78
2024/01/03 06:12:54;;;;;;;1.20;0.90;;;;;;;-145.69;69.90;52309.72;5094265;28;20197;-79
2024/01/03 06:15:21;;;;;;;1.50;1.30;;;;;;;-145.69;69.88;52262.19;5094274;28;20614;-78
2024/01/03 06:17:47;;;;;;;2.40;0.90;;;;;;;-145.69;69.98;52285.97;5094383;28;20209;-77
2024/01/03 06:20:14;;;;;;;4.47;1.17;;;;;;;-145.69;70.12;52291.91;5094007;28;20697;-78
2024/01/03 06:22:41;;;;;;;1.57;0.77;;;;;;;-145.69;69.72;52283.97;5093899;28;20219;-79
2024/01/03 06:25:08;;;;;;;1.73;1.17;;;;;;;-145.69;69.38;52264.16;5093908;28;20275;-78
2024/01/03 06:27:35;;;;;;;9.43;1.17;;;;;;;-145.69;69.41;52293.88;5094031;28;20213;-78
2024/01/03 06:30:01;;;;;;;4.23;1.10;;;;;;;-145.69;69.32;52321.59;5093913;28;20206;-77
2024/01/03 06:32:27;;;;;;;3.73;1.30;;;;;;;-145.69;70.47;52293.88;5093486;28;20240;-77
2024/01/03 06:34:54;;;;;;;6.33;1.07;;;;;;;-145.69;70.24;52301.81;5093340;28;20240;-78
2024/01/03 06:37:20;;;;;;;2.87;1.60;;;;;;;-145.69;70.18;52260.22;5093647;28;20202;-78
2024/01/03 06:39:48;;;;;;;2.67;1.23;;;;;;;-145.69;70.04;52309.72;5093675;28;20655;-78
2024/01/03 06:42:14;;;;;;;2.63;1.07;;;;;;;-145.69;70.05;52295.84;5093838;28;20202;-79
2024/01/03 06:44:41;;;;;;;6.13;1.70;;;;;;;-145.69;69.28;52266.16;5093390;28;20710;-77
2024/01/03 06:47:07;;;;;;;3.30;1.10;;;;;;;-145.69;69.85;52280.00;5093757;28;20194;-78
2024/01/03 06:49:33;;;;;;;6.90;1.10;;;;;;;-145.69;69.93;52297.84;5093638;28;20202;-78
2024/01/03 06:52:00;;;;;;;2.80;1.03;;;;;;;-145.69;69.69;52291.91;5093564;28;20224;-78
2024/01/03 06:54:26;;;;;;;5.83;1.00;;;;;;;-145.69;69.93;52305.75;5093640;28;20194;-78
2024/01/03 06:56:54;;;;;;;6.20;0.83;;;;;;;-145.69;68.80;52301.81;5093743;28;20199;-78
2024/01/03 06:59:20;;;;;;;3.27;0.90;;;;;;;-145.69;68.55;52282.00;5092375;28;20237;-77
2024/01/03 07:01:47;;;;;;;3.13;0.77;;;;;;;-145.69;68.70;52293.88;5092707;28;20199;-79
2024/01/03 07:04:13;;;;;;;1.73;0.93;;;;;;;-145.69;68.21;52274.06;5093053;28;20198;-78
2024/01/03 07:06:40;;;;;;;1.80;0.80;;;;;;;-145.69;68.47;52315.66;5092848;28;20198;-78
2024/01/03 07:09:06;;;;;;;4.43;1.13;;;;;;;-145.69;68.20;52301.81;5093406;28;20242;-77
2024/01/03 07:11:33;;;;;;;1.90;0.97;;;;;;;-145.69;68.66;52293.88;5093286;28;20198;-78
2024/01/03 07:14:00;;;;;;;6.07;1.03;;;;;;;-145.69;68.67;52315.66;5093281;28;20288;-78
2024/01/03 07:16:27;;;;;;;3.90;1.17;;;;;;;-145.69;68.12;52287.94;5093052;28;20675;-78
2024/01/03 07:18:53;;;;;;;4.63;1.10;;;;;;;-145.69;67.87;52289.91;5092993;28;20251;-79
2024/01/03 07:21:22;;;;;;;4.43;1.00;;;;;;;-145.69;67.62;52309.72;5093271;28;20607;-77
2024/01/03 07:23:49;;;;;;;1.50;1.00;;;;;;;-145.69;68.07;52313.69;5093214;28;20205;-78
2024/01/03 07:26:15;;;;;;;1.43;0.73;;;;;;;-145.69;66.85;52299.81;5093208;28;20198;-78
2024/01/03 07:28:42;;;;;;;2.83;0.90;;;;;;;-145.69;67.11;52303.78;5092929;28;20206;-78
2024/01/03 07:31:11;;;;;;;3.87;0.87;;;;;;;-145.69;66.43;52301.81;5092802;28;20206;-78
2024/01/03 07:33:39;;;;;;;1.70;0.87;;;;;;;-145.69;66.06;52313.69;5092941;28;20244;-77
2024/01/03 07:36:05;;;;;;;5.47;1.10;;;;;;;-145.69;65.77;52278.03;5092744;28;20334;-77
2024/01/03 07:38:32;;;;;;;5.47;0.97;;;;;;;-145.69;65.96;52299.81;5093073;28;20210;-77
2024/01/03 07:40:59;;;;;;;2.90;1.13;;;;;;;-145.69;66.21;52307.75;5092889;28;20206;-77
2024/01/03 07:43:27;;;;;;;4.30;1.00;;;;;;;-145.69;65.56;52309.72;5092817;28;20201;-78
2024/01/03 07:45:53;;;;;;;7.43;1.30;;;;;;;-145.69;64.99;52291.91;5092829;28;20558;-77
2024/01/03 07:48:21;;;;;;;3.83;1.10;;;;;;;-145.69;64.19;52274.06;5092880;28;20721;-77
2024/01/03 07:50:47;;;;;;;6.27;1.33;;;;;;;-145.69;64.94;52325.56;5093044;28;20202;-77
2024/01/03 07:53:14;;;;;;;5.03;1.10;;;;;;;-145.69;64.06;52295.84;5092948;28;20206;-78
2024/01/03 07:55:40;;;;;;;6.57;0.97;;;;;;;-145.69;63.50;52309.72;5092903;28;20205;-77
2024/01/03 07:58:08;;;;;;;9.80;1.43;;;;;;;-145.69;62.55;52291.91;5092651;28;20302;-78
2024/01/03 08:00:34;;;;;;;2.77;1.20;;;;;;;-145.69;62.99;52270.13;5092178;28;20580;-78
2024/01/03 08:03:01;;;;;;;3.03;1.00;;;;;;;-145.69;63.08;52307.75;5092126;28;20194;-78
2024/01/03 08:05:29;;;;;;;2.73;0.87;;;;;;;-145.69;62.66;52285.97;5087949;28;20198;-78
2024/01/03 08:07:55;;;;;;;4.23;1.20;;;;;;;-145.69;62.02;52291.91;5072642;28;20199;-77
2024/01/03 08:10:21;;;;;;;2.10;0.80;;;;;;;-145.69;62.13;52266.16;5074949;28;20205;-78
2024/01/03 08:12:48;;;;;;;5.00;1.10;;;;;;;-145.69;61.46;52274.06;5076171;28;20600;-78
2024/01/03 08:15:14;;;;;;;3.67;1.03;;;;;;;-145.69;61.54;52272.09;5076024;28;20199;-78
2024/01/03 08:17:41;;;;;;;4.40;1.20;;;;;;;-145.69;60.99;52285.97;5076322;28;20557;-78
2024/01/03 08:20:09;;;;;;;11.10;1.23;;;;;;;-145.69;60.41;52309.72;5076137;28;20257;-78
2024/01/03 08:22:38;;;;;;;2.23;1.00;;;;;;;-145.69;59.73;52289.91;5075899;28;20190;-78
2024/01/03 08:25:05;;;;;;;7.73;1.23;;;;;;;-145.69;59.73;52305.75;5075949;28;20667;-76
2024/01/03 08:27:32;;;;;;;10.77;1.20;;;;;;;-145.69;59.85;52282.00;5075957;28;20198;-77
2024/01/03 08:29:58;;;;;;;2.50;1.00;;;;;;;-145.69;58.91;52270.13;5076204;28;20256;-77
2024/01/03 08:32:25;;;;;;;9.10;1.30;;;;;;;-145.69;59.26;52270.13;5089291;28;20187;-78
2024/01/03 08:34:52;;;;;;;3.40;1.20;;;;;;;-145.69;58.44;52287.94;5094439;28;20194;-78
2024/01/03 08:37:18;;;;;;;1.47;1.00;;;;;;;-145.69;58.91;52266.16;5093249;28;20195;-77
2024/01/03 08:39:46;;;;;;;9.73;1.63;;;;;;;-145.69;59.17;52270.13;5095726;28;20229;-79
2024/01/03 08:42:12;;;;;;;3.30;1.20;;;;;;;-145.69;59.73;52285.97;5095946;28;20676;-78
2024/01/03 08:44:39;;;;;;;2.83;1.00;;;;;;;-145.69;59.27;52266.16;5095845;28;20197;-78
2024/01/03 08:47:07;;;;;;;4.63;1.00;;;;;;;-145.69;59.02;52303.78;5095989;28;20198;-78
2024/01/03 08:49:34;;;;;;;3.67;1.17;;;;;;;-145.69;58.64;52250.31;5095824;28;20213;-77
2024/01/03 08:52:01;;;;;;;3.90;1.10;;;;;;;-145.69;58.80;52274.06;5095899;28;20255;-77
2024/01/03 08:54:27;;;;;;;29.73;2.30;;;;;;;-145.69;58.71;52274.06;5095728;28;20198;-77
2024/01/03 08:56:55;;;;;;;2.77;0.97;;;;;;;-145.69;59.41;52283.97;5095552;28;20568;-78
2024/01/03 08:59:21;;;;;;;2.83;1.07;;;;;;;-145.69;59.36;52285.97;5095188;28;20252;-77
2024/01/03 09:01:52;;;;;;;4.13;0.80;;;;;;;-145.69;59.28;52278.03;5095447;28;20193;-77
2024/01/03 09:04:18;;;;;;;5.77;1.10;;;;;;;-145.69;59.16;52258.22;5095831;28;20194;-77
2024/01/03 09:06:45;;;;;;;2.10;1.17;;;;;;;-145.69;59.92;52280.00;5095438;28;20206;-77
2024/01/03 09:09:11;;;;;;;2.23;0.97;;;;;;;-145.69;59.33;52258.22;5095428;28;20205;-78
2024/01/03 09:11:37;;;;;;;2.97;1.00;;;;;;;-145.69;58.38;52297.84;5095314;28;20210;-78
2024/01/03 09:14:05;;;;;;;6.23;1.00;;;;;;;-145.69;57.85;52264.16;5095312;28;20546;-78
2024/01/03 09:16:32;;;;;;;3.27;1.03;;;;;;;-145.69;57.78;52256.25;5095135;28;20194;-78
2024/01/03 09:18:59;;;;;;;3.77;1.20;;;;;;;-145.69;57.23;52276.06;5095292;28;20229;-79
2024/01/03 09:21:26;;;;;;;2.40;0.80;;;;;;;-145.69;56.97;52289.91;5094311;28;20226;-78
2024/01/03 09:23:53;;;;;;;5.23;1.33;;;;;;;-145.69;57.64;52280.00;5095077;28;20584;-77
2024/01/03 09:26:20;;;;;;;5.27;1.37;;;;;;;-145.69;57.95;52268.13;5095324;28;20202;-79
2024/01/03 09:28:47;;;;;;;6.63;1.30;;;;;;;-145.69;58.18;52289.91;5095254;28;20281;-79
2024/01/03 09:31:16;;;;;;;5.53;1.63;;;;;;;-145.69;58.26;52238.44;5094847;28;20255;-78
2024/01/03 09:33:42;;;;;;;6.63;1.57;;;;;;;-145.69;57.15;52280.00;5095018;28;20605;-78
2024/01/03 09:36:17;;;;;;;4.73;1.63;;;;;;;-145.69;56.58;52196.84;5094938;28;20206;-78
2024/01/03 09:38:44;;;;;;;8.87;1.57;;;;;;;-145.69;56.35;52260.22;5095225;28;20237;-78
2024/01/03 09:41:12;;;;;;;8.53;1.80;;;;;;;-145.69;56.35;52244.38;5094883;28;20238;-78
2024/01/03 09:43:40;;;;;;;2.73;1.20;;;;;;;-145.69;55.26;52230.50;5095017;28;20648;-79
2024/01/03 09:46:06;;;;;;;5.23;1.57;;;;;;;-145.69;55.27;52248.34;5094716;28;20591;-79
2024/01/03 09:48:34;;;;;;;2.53;1.30;;;;;;;-145.69;56.44;52272.09;5094757;28;20244;-78
2024/01/03 09:51:03;;;;;;;3.77;1.30;;;;;;;-145.69;57.41;52270.13;5094434;28;20197;-78
2024/01/03 09:53:31;;;;;;;2.40;1.07;;;;;;;-145.69;58.12;52256.25;5094761;28;20195;-78
2024/01/03 09:55:59;;;;;;;6.00;1.30;;;;;;;-145.69;59.36;52289.91;5094676;28;20203;-77
2024/01/03 09:58:25;;;;;;;6.73;1.30;;;;;;;-145.69;59.16;52313.69;5093913;28;20217;-77
2024/01/03 10:00:52;;;;;;;4.13;0.90;;;;;;;-145.69;60.64;52274.06;5093630;28;20711;-79
2024/01/03 10:03:18;;;;;;;6.73;1.27;;;;;;;-145.69;59.55;52274.06;5093939;28;20198;-78
2024/01/03 10:05:46;;;;;;;4.50;1.00;;;;;;;-145.69;60.06;52270.13;5094629;28;20205;-78
2024/01/03 10:08:16;;;;;;;1.67;1.57;;;;;;;-145.69;59.52;52252.28;5091705;28;20653;-79
2024/01/03 10:10:45;;;;;;;2.00;0.87;;;;;;;-145.69;59.91;52276.06;5094352;28;20198;-80
2024/01/03 10:13:16;;;;;;;3.40;1.33;;;;;;;-145.69;59.65;52287.94;5085133;28;20207;-77
2024/01/03 10:15:44;;;;;;;7.43;1.00;;;;;;;-145.69;59.92;52280.00;5090996;28;20198;-79
2024/01/03 10:18:11;;;;;;;5.20;1.20;;;;;;;-145.69;59.04;52242.38;5093794;28;20232;-80
2024/01/03 10:20:39;;;;;;;3.33;0.73;;;;;;;-145.69;58.53;52270.13;5093567;28;20696;-80
2024/01/03 10:23:09;;;;;;;3.93;0.90;;;;;;;-145.69;58.93;52248.34;5094028;28;20232;-79
2024/01/03 10:25:35;;;;;;;2.50;1.13;;;;;;;-145.69;58.93;52295.84;5093913;28;20259;-78
2024/01/03 10:28:03;;;;;;;3.40;1.00;;;;;;;-145.69;58.43;52283.97;5093853;28;20234;-78
2024/01/03 10:30:30;;;;;;;2.57;1.13;;;;;;;-145.69;57.50;52282.00;5093422;28;20198;-78
2024/01/03 10:32:57;;;;;;;1.30;0.90;;;;;;;-145.69;58.02;52282.00;5093669;28;20198;-80
2024/01/03 10:35:27;;;;;;;2.10;1.10;;;;;;;-145.69;58.91;52258.22;5093215;28;20205;-78
2024/01/03 10:37:54;;;;;;;4.77;0.90;;;;;;;-145.69;59.21;52248.34;5093646;28;20587;-79
2024/01/03 10:40:22;;;;;;;6.77;1.23;;;;;;;-145.69;60.06;52274.06;5086515;28;20230;-79
2024/01/03 10:42:50;;;;;;;2.17;0.90;;;;;;;-145.69;59.82;52301.81;5074321;28;20260;-78
2024/01/03 10:45:18;;;;;;;4.23;0.93;;;;;;;-145.69;58.70;52270.13;5093233;28;20205;-80
2024/01/03 10:47:45;;;;;;;1.57;0.90;;;;;;;-145.69;58.03;52262.19;5093825;28;20271;-79
2024/01/03 10:50:11;;;;;;;3.63;0.90;;;;;;;-145.69;57.20;52258.22;5093427;28;20338;-79
2024/01/03 10:52:38;;;;;;;2.67;0.90;;;;;;;-145.69;55.52;52303.78;5093481;28;20190;-79
2024/01/03 10:55:06;;;;;;;3.53;1.50;;;;;;;-145.69;54.71;52240.41;5093087;28;20213;-78
2024/01/03 10:57:36;;;;;;;1.67;0.90;;;;;;;-145.69;54.34;52262.19;5092685;28;20716;-78
2024/01/03 11:00:15;;;;;;;4.47;1.07;;;;;;;-145.69;53.83;52246.34;5093363;28;20222;-79
2024/01/03 11:02:49;;;;;;;2.63;0.80;;;;;;;-145.69;52.84;52226.53;5092976;28;20200;-80
2024/01/03 11:05:22;;;;;;;4.37;0.77;;;;;;;-145.69;52.77;52222.59;5093052;28;20594;-82
2024/01/03 11:07:53;;;;;;;5.73;0.90;;;;;;;-145.69;52.09;52250.31;5092947;28;20202;-79
2024/01/03 11:10:48;;;;;;;1.30;0.80;;;;;;;-145.69;52.11;52234.47;5092786;28;20233;-80
2024/01/03 11:13:29;;;;;;;6.32;1.10;;;;;;;-145.69;50.94;52268.13;5093200;28;20310;-78
2024/01/03 11:15:56;;;;;;;1.95;0.80;;;;;;;-145.69;50.34;52214.66;5092903;28;20229;-79
2024/01/03 11:18:53;;;;;;;2.43;1.00;;;;;;;-145.69;49.71;52228.53;5092894;28;20293;-78